Terminal Aerodrome Forecast
Issued by NWS

Home | Current Version | Previous Version | Text Only | Print | Product List | Glossary On
Versions: 1 2 3 4 5 6 7 8 9 10 11 12 13 14 15 16 17 18
000
FTUS44 KEPZ 271000 AAC
TAFTCS
TAF AMD
KTCS 271054Z 2711/2806 35005KT 3SM BR BKN003
     FM271300 17006KT P6SM SCT020 BKN040 BKN070=

USA.gov is the U.S. government's official web portal to all federal, state and local government web resources and services.